sensor_id;sensor_type;location;lat;lon;timestamp;P1;durP1;ratioP1;P2;durP2;ratioP2
40675;SDS011;26359;48.750;9.314;2022-08-30T00:01:02;11.73;;;10.60;;
40675;SDS011;26359;48.750;9.314;2022-08-30T00:03:32;10.07;;;9.07;;
40675;SDS011;26359;48.750;9.314;2022-08-30T00:06:00;9.82;;;8.82;;
40675;SDS011;26359;48.750;9.314;2022-08-30T00:08:26;9.95;;;8.90;;
40675;SDS011;26359;48.750;9.314;2022-08-30T00:10:52;10.55;;;9.45;;
40675;SDS011;26359;48.750;9.314;2022-08-30T00:13:18;9.95;;;9.05;;
40675;SDS011;26359;48.750;9.314;2022-08-30T00:15:45;9.27;;;8.38;;
40675;SDS011;26359;48.750;9.314;2022-08-30T00:18:12;9.52;;;8.60;;
40675;SDS011;26359;48.750;9.314;2022-08-30T00:20:39;8.88;;;7.97;;
40675;SDS011;26359;48.750;9.314;2022-08-30T00:23:05;9.13;;;8.25;;
40675;SDS011;26359;48.750;9.314;2022-08-30T00:25:31;9.57;;;8.65;;
40675;SDS011;26359;48.750;9.314;2022-08-30T00:27:57;9.70;;;8.70;;
40675;SDS011;26359;48.750;9.314;2022-08-30T00:30:23;8.63;;;7.78;;
40675;SDS011;26359;48.750;9.314;2022-08-30T00:32:49;9.52;;;8.57;;
40675;SDS011;26359;48.750;9.314;2022-08-30T00:35:15;9.13;;;8.30;;
40675;SDS011;26359;48.750;9.314;2022-08-30T00:37:42;11.45;;;10.32;;
40675;SDS011;26359;48.750;9.314;2022-08-30T00:40:08;11.18;;;8.10;;
40675;SDS011;26359;48.750;9.314;2022-08-30T00:42:35;9.25;;;8.35;;
40675;SDS011;26359;48.750;9.314;2022-08-30T00:45:09;9.27;;;7.88;;
40675;SDS011;26359;48.750;9.314;2022-08-30T00:47:43;11.07;;;9.45;;
40675;SDS011;26359;48.750;9.314;2022-08-30T00:50:10;10.30;;;9.45;;
40675;SDS011;26359;48.750;9.314;2022-08-30T00:52:38;10.02;;;8.82;;
40675;SDS011;26359;48.750;9.314;2022-08-30T00:55:06;10.43;;;9.27;;
40675;SDS011;26359;48.750;9.314;2022-08-30T00:57:33;9.85;;;8.85;;
40675;SDS011;26359;48.750;9.314;2022-08-30T01:00:00;14.80;;;13.70;;
40675;SDS011;26359;48.750;9.314;2022-08-30T01:02:28;10.38;;;9.23;;
40675;SDS011;26359;48.750;9.314;2022-08-30T01:04:57;9.98;;;7.88;;
40675;SDS011;26359;48.750;9.314;2022-08-30T01:07:25;12.70;;;11.65;;
40675;SDS011;26359;48.750;9.314;2022-08-30T01:09:51;10.88;;;9.95;;
40675;SDS011;26359;48.750;9.314;2022-08-30T01:12:16;10.15;;;8.27;;
40675;SDS011;26359;48.750;9.314;2022-08-30T01:14:42;10.05;;;7.90;;
40675;SDS011;26359;48.750;9.314;2022-08-30T01:17:09;8.73;;;7.88;;
40675;SDS011;26359;48.750;9.314;2022-08-30T01:19:42;8.18;;;7.38;;
40675;SDS011;26359;48.750;9.314;2022-08-30T01:22:19;10.75;;;9.75;;
40675;SDS011;26359;48.750;9.314;2022-08-30T01:25:04;8.68;;;7.78;;
40675;SDS011;26359;48.750;9.314;2022-08-30T01:27:32;10.70;;;9.40;;
40675;SDS011;26359;48.750;9.314;2022-08-30T01:30:00;7.90;;;6.70;;
40675;SDS011;26359;48.750;9.314;2022-08-30T01:32:28;9.73;;;7.38;;
40675;SDS011;26359;48.750;9.314;2022-08-30T01:34:54;8.48;;;7.68;;
40675;SDS011;26359;48.750;9.314;2022-08-30T01:37:22;9.82;;;8.07;;
40675;SDS011;26359;48.750;9.314;2022-08-30T01:39:51;9.07;;;8.18;;
40675;SDS011;26359;48.750;9.314;2022-08-30T01:42:16;10.95;;;9.43;;
40675;SDS011;26359;48.750;9.314;2022-08-30T01:44:43;14.32;;;13.25;;
40675;SDS011;26359;48.750;9.314;2022-08-30T01:47:09;14.13;;;12.93;;
40675;SDS011;26359;48.750;9.314;2022-08-30T01:49:35;11.00;;;9.30;;
40675;SDS011;26359;48.750;9.314;2022-08-30T01:52:01;11.52;;;10.40;;
40675;SDS011;26359;48.750;9.314;2022-08-30T01:54:27;9.00;;;8.20;;
40675;SDS011;26359;48.750;9.314;2022-08-30T01:56:54;10.43;;;9.50;;
40675;SDS011;26359;48.750;9.314;2022-08-30T01:59:20;9.15;;;8.43;;
40675;SDS011;26359;48.750;9.314;2022-08-30T02:01:45;9.55;;;8.65;;
40675;SDS011;26359;48.750;9.314;2022-08-30T02:04:11;11.15;;;10.10;;
40675;SDS011;26359;48.750;9.314;2022-08-30T02:06:38;10.43;;;9.23;;
40675;SDS011;26359;48.750;9.314;2022-08-30T02:09:03;10.15;;;9.23;;
40675;SDS011;26359;48.750;9.314;2022-08-30T02:11:29;9.35;;;8.55;;
40675;SDS011;26359;48.750;9.314;2022-08-30T02:13:55;9.05;;;8.27;;
40675;SDS011;26359;48.750;9.314;2022-08-30T02:16:21;9.68;;;8.68;;
40675;SDS011;26359;48.750;9.314;2022-08-30T02:18:49;9.82;;;7.70;;
40675;SDS011;26359;48.750;9.314;2022-08-30T02:21:15;9.70;;;8.85;;
40675;SDS011;26359;48.750;9.314;2022-08-30T02:23:41;11.35;;;8.50;;
40675;SDS011;26359;48.750;9.314;2022-08-30T02:26:07;9.25;;;8.35;;
40675;SDS011;26359;48.750;9.314;2022-08-30T02:28:32;10.52;;;9.57;;
40675;SDS011;26359;48.750;9.314;2022-08-30T02:30:59;12.73;;;11.70;;
40675;SDS011;26359;48.750;9.314;2022-08-30T02:33:25;8.98;;;7.97;;
40675;SDS011;26359;48.750;9.314;2022-08-30T02:35:50;8.80;;;7.70;;
40675;SDS011;26359;48.750;9.314;2022-08-30T02:38:16;7.43;;;6.72;;
40675;SDS011;26359;48.750;9.314;2022-08-30T02:40:42;9.52;;;7.68;;
40675;SDS011;26359;48.750;9.314;2022-08-30T02:43:09;8.77;;;7.80;;
40675;SDS011;26359;48.750;9.314;2022-08-30T02:45:34;7.93;;;7.22;;
40675;SDS011;26359;48.750;9.314;2022-08-30T02:48:00;8.13;;;7.32;;
40675;SDS011;26359;48.750;9.314;2022-08-30T02:50:25;8.65;;;7.85;;
40675;SDS011;26359;48.750;9.314;2022-08-30T02:52:51;8.13;;;7.32;;
40675;SDS011;26359;48.750;9.314;2022-08-30T02:55:17;8.15;;;6.93;;
40675;SDS011;26359;48.750;9.314;2022-08-30T02:57:43;7.53;;;6.82;;
40675;SDS011;26359;48.750;9.314;2022-08-30T03:00:10;7.25;;;6.65;;
40675;SDS011;26359;48.750;9.314;2022-08-30T03:02:37;8.27;;;7.47;;
40675;SDS011;26359;48.750;9.314;2022-08-30T03:05:04;8.38;;;7.45;;
40675;SDS011;26359;48.750;9.314;2022-08-30T03:07:30;10.15;;;7.75;;
40675;SDS011;26359;48.750;9.314;2022-08-30T03:09:56;8.57;;;7.18;;
40675;SDS011;26359;48.750;9.314;2022-08-30T03:12:22;10.65;;;7.68;;
40675;SDS011;26359;48.750;9.314;2022-08-30T03:14:49;9.95;;;8.25;;
40675;SDS011;26359;48.750;9.314;2022-08-30T03:17:14;8.93;;;7.85;;
40675;SDS011;26359;48.750;9.314;2022-08-30T03:19:41;10.25;;;9.07;;
40675;SDS011;26359;48.750;9.314;2022-08-30T03:22:07;10.65;;;8.93;;
40675;SDS011;26359;48.750;9.314;2022-08-30T03:24:33;10.07;;;9.07;;
40675;SDS011;26359;48.750;9.314;2022-08-30T03:26:59;9.63;;;8.73;;
40675;SDS011;26359;48.750;9.314;2022-08-30T03:29:24;7.38;;;6.75;;
40675;SDS011;26359;48.750;9.314;2022-08-30T03:31:50;9.13;;;8.15;;
40675;SDS011;26359;48.750;9.314;2022-08-30T03:34:16;10.20;;;9.15;;
40675;SDS011;26359;48.750;9.314;2022-08-30T03:36:42;8.50;;;7.30;;
40675;SDS011;26359;48.750;9.314;2022-08-30T03:39:09;12.98;;;11.93;;
40675;SDS011;26359;48.750;9.314;2022-08-30T03:41:34;8.07;;;7.22;;
40675;SDS011;26359;48.750;9.314;2022-08-30T03:44:00;8.43;;;7.35;;
40675;SDS011;26359;48.750;9.314;2022-08-30T03:46:26;8.50;;;7.63;;
40675;SDS011;26359;48.750;9.314;2022-08-30T03:48:53;9.85;;;7.90;;
40675;SDS011;26359;48.750;9.314;2022-08-30T03:51:20;10.15;;;9.27;;
40675;SDS011;26359;48.750;9.314;2022-08-30T03:53:46;9.80;;;8.02;;
40675;SDS011;26359;48.750;9.314;2022-08-30T03:56:12;9.77;;;8.25;;
40675;SDS011;26359;48.750;9.314;2022-08-30T03:58:38;8.18;;;7.38;;
40675;SDS011;26359;48.750;9.314;2022-08-30T04:01:04;9.73;;;8.38;;
40675;SDS011;26359;48.750;9.314;2022-08-30T04:03:30;9.75;;;8.85;;
40675;SDS011;26359;48.750;9.314;2022-08-30T04:05:56;11.07;;;9.93;;
40675;SDS011;26359;48.750;9.314;2022-08-30T04:08:22;12.25;;;10.57;;
40675;SDS011;26359;48.750;9.314;2022-08-30T04:10:48;11.57;;;9.93;;
40675;SDS011;26359;48.750;9.314;2022-08-30T04:13:14;11.45;;;9.32;;
40675;SDS011;26359;48.750;9.314;2022-08-30T04:15:40;11.98;;;10.73;;
40675;SDS011;26359;48.750;9.314;2022-08-30T04:18:06;10.90;;;9.90;;
40675;SDS011;26359;48.750;9.314;2022-08-30T04:20:32;11.02;;;9.93;;
40675;SDS011;26359;48.750;9.314;2022-08-30T04:22:58;11.38;;;10.20;;
40675;SDS011;26359;48.750;9.314;2022-08-30T04:25:23;13.30;;;11.95;;
40675;SDS011;26359;48.750;9.314;2022-08-30T04:27:49;12.15;;;10.93;;
40675;SDS011;26359;48.750;9.314;2022-08-30T04:30:15;10.40;;;9.10;;
40675;SDS011;26359;48.750;9.314;2022-08-30T04:32:42;9.65;;;8.55;;
40675;SDS011;26359;48.750;9.314;2022-08-30T04:35:08;9.25;;;7.97;;
40675;SDS011;26359;48.750;9.314;2022-08-30T04:37:34;8.70;;;7.72;;
40675;SDS011;26359;48.750;9.314;2022-08-30T04:40:01;8.63;;;7.65;;
40675;SDS011;26359;48.750;9.314;2022-08-30T04:42:27;10.02;;;8.23;;
40675;SDS011;26359;48.750;9.314;2022-08-30T04:44:55;9.50;;;7.50;;
40675;SDS011;26359;48.750;9.314;2022-08-30T04:47:21;9.05;;;8.15;;
40675;SDS011;26359;48.750;9.314;2022-08-30T04:49:47;9.15;;;8.25;;
40675;SDS011;26359;48.750;9.314;2022-08-30T04:52:13;8.63;;;7.72;;
40675;SDS011;26359;48.750;9.314;2022-08-30T04:54:38;9.32;;;7.68;;
40675;SDS011;26359;48.750;9.314;2022-08-30T04:57:04;11.35;;;8.38;;
40675;SDS011;26359;48.750;9.314;2022-08-30T04:59:30;10.90;;;9.95;;
40675;SDS011;26359;48.750;9.314;2022-08-30T05:01:57;9.27;;;8.30;;
40675;SDS011;26359;48.750;9.314;2022-08-30T05:04:23;10.07;;;7.90;;
40675;SDS011;26359;48.750;9.314;2022-08-30T05:06:48;9.23;;;8.25;;
40675;SDS011;26359;48.750;9.314;2022-08-30T05:09:14;9.07;;;8.23;;
40675;SDS011;26359;48.750;9.314;2022-08-30T05:11:40;10.93;;;8.23;;
40675;SDS011;26359;48.750;9.314;2022-08-30T05:14:07;8.85;;;7.95;;
40675;SDS011;26359;48.750;9.314;2022-08-30T05:16:33;11.43;;;8.80;;
40675;SDS011;26359;48.750;9.314;2022-08-30T05:18:59;9.95;;;8.95;;
40675;SDS011;26359;48.750;9.314;2022-08-30T05:21:24;9.65;;;8.75;;
40675;SDS011;26359;48.750;9.314;2022-08-30T05:23:52;9.90;;;8.45;;
40675;SDS011;26359;48.750;9.314;2022-08-30T05:26:27;9.73;;;8.52;;
40675;SDS011;26359;48.750;9.314;2022-08-30T05:28:54;10.38;;;9.38;;
40675;SDS011;26359;48.750;9.314;2022-08-30T05:31:21;9.18;;;8.27;;
40675;SDS011;26359;48.750;9.314;2022-08-30T05:33:53;9.95;;;7.82;;
40675;SDS011;26359;48.750;9.314;2022-08-30T05:36:23;9.43;;;8.50;;
40675;SDS011;26359;48.750;9.314;2022-08-30T05:38:51;10.02;;;8.35;;
40675;SDS011;26359;48.750;9.314;2022-08-30T05:41:18;11.40;;;8.40;;
40675;SDS011;26359;48.750;9.314;2022-08-30T05:43:44;9.93;;;8.93;;
40675;SDS011;26359;48.750;9.314;2022-08-30T05:46:11;11.00;;;8.73;;
40675;SDS011;26359;48.750;9.314;2022-08-30T05:48:38;9.75;;;8.85;;
40675;SDS011;26359;48.750;9.314;2022-08-30T05:51:12;15.88;;;14.43;;
40675;SDS011;26359;48.750;9.314;2022-08-30T05:53:41;9.95;;;8.98;;
40675;SDS011;26359;48.750;9.314;2022-08-30T05:56:08;10.82;;;9.35;;
40675;SDS011;26359;48.750;9.314;2022-08-30T05:58:35;14.88;;;13.45;;
40675;SDS011;26359;48.750;9.314;2022-08-30T06:01:01;9.55;;;8.65;;
40675;SDS011;26359;48.750;9.314;2022-08-30T06:03:30;12.00;;;10.90;;
40675;SDS011;26359;48.750;9.314;2022-08-30T06:06:16;11.90;;;10.60;;
40675;SDS011;26359;48.750;9.314;2022-08-30T06:08:41;12.85;;;9.18;;
40675;SDS011;26359;48.750;9.314;2022-08-30T06:11:09;12.60;;;11.15;;
40675;SDS011;26359;48.750;9.314;2022-08-30T06:13:36;13.07;;;11.77;;
40675;SDS011;26359;48.750;9.314;2022-08-30T06:16:02;12.00;;;10.88;;
40675;SDS011;26359;48.750;9.314;2022-08-30T06:18:28;12.27;;;11.18;;
40675;SDS011;26359;48.750;9.314;2022-08-30T06:20:55;11.73;;;10.57;;
40675;SDS011;26359;48.750;9.314;2022-08-30T06:23:20;11.55;;;10.52;;
40675;SDS011;26359;48.750;9.314;2022-08-30T06:25:46;12.50;;;11.40;;
40675;SDS011;26359;48.750;9.314;2022-08-30T06:28:13;10.63;;;9.63;;
40675;SDS011;26359;48.750;9.314;2022-08-30T06:30:39;14.07;;;10.10;;
40675;SDS011;26359;48.750;9.314;2022-08-30T06:33:06;11.45;;;10.45;;
40675;SDS011;26359;48.750;9.314;2022-08-30T06:35:31;14.43;;;11.65;;
40675;SDS011;26359;48.750;9.314;2022-08-30T06:37:57;12.70;;;11.32;;
40675;SDS011;26359;48.750;9.314;2022-08-30T06:40:23;13.90;;;12.63;;
40675;SDS011;26359;48.750;9.314;2022-08-30T06:42:48;12.70;;;11.40;;
40675;SDS011;26359;48.750;9.314;2022-08-30T06:45:15;10.95;;;9.93;;
40675;SDS011;26359;48.750;9.314;2022-08-30T06:47:41;10.10;;;9.05;;
40675;SDS011;26359;48.750;9.314;2022-08-30T06:50:07;10.43;;;8.70;;
40675;SDS011;26359;48.750;9.314;2022-08-30T06:52:34;12.38;;;9.65;;
40675;SDS011;26359;48.750;9.314;2022-08-30T06:55:00;12.55;;;11.45;;
40675;SDS011;26359;48.750;9.314;2022-08-30T06:57:25;14.80;;;11.05;;
40675;SDS011;26359;48.750;9.314;2022-08-30T06:59:57;10.73;;;9.20;;
40675;SDS011;26359;48.750;9.314;2022-08-30T07:02:23;11.45;;;8.93;;
40675;SDS011;26359;48.750;9.314;2022-08-30T07:04:49;10.35;;;8.88;;
40675;SDS011;26359;48.750;9.314;2022-08-30T07:07:15;10.38;;;8.57;;
40675;SDS011;26359;48.750;9.314;2022-08-30T07:09:40;10.32;;;9.25;;
40675;SDS011;26359;48.750;9.314;2022-08-30T07:12:10;10.10;;;8.15;;
40675;SDS011;26359;48.750;9.314;2022-08-30T07:14:37;13.15;;;11.85;;
40675;SDS011;26359;48.750;9.314;2022-08-30T07:17:04;13.75;;;11.50;;
40675;SDS011;26359;48.750;9.314;2022-08-30T07:19:50;11.07;;;9.75;;
40675;SDS011;26359;48.750;9.314;2022-08-30T07:22:15;10.55;;;9.63;;
40675;SDS011;26359;48.750;9.314;2022-08-30T07:24:41;11.38;;;9.18;;
40675;SDS011;26359;48.750;9.314;2022-08-30T07:27:07;10.75;;;7.97;;
40675;SDS011;26359;48.750;9.314;2022-08-30T07:29:33;11.45;;;10.02;;
40675;SDS011;26359;48.750;9.314;2022-08-30T07:31:58;13.70;;;12.40;;
40675;SDS011;26359;48.750;9.314;2022-08-30T07:34:24;11.98;;;10.88;;
40675;SDS011;26359;48.750;9.314;2022-08-30T07:36:49;12.20;;;10.00;;
40675;SDS011;26359;48.750;9.314;2022-08-30T07:39:15;9.65;;;7.97;;
40675;SDS011;26359;48.750;9.314;2022-08-30T07:41:40;9.18;;;8.20;;
40675;SDS011;26359;48.750;9.314;2022-08-30T07:44:08;12.70;;;8.63;;
40675;SDS011;26359;48.750;9.314;2022-08-30T07:46:33;11.07;;;9.35;;
40675;SDS011;26359;48.750;9.314;2022-08-30T07:49:01;12.18;;;9.45;;
40675;SDS011;26359;48.750;9.314;2022-08-30T07:51:27;14.10;;;12.50;;
40675;SDS011;26359;48.750;9.314;2022-08-30T07:53:53;13.73;;;10.20;;
40675;SDS011;26359;48.750;9.314;2022-08-30T07:56:20;13.82;;;9.63;;
40675;SDS011;26359;48.750;9.314;2022-08-30T07:58:46;13.20;;;10.75;;
40675;SDS011;26359;48.750;9.314;2022-08-30T08:01:13;11.70;;;10.35;;
40675;SDS011;26359;48.750;9.314;2022-08-30T08:03:39;11.85;;;9.30;;
40675;SDS011;26359;48.750;9.314;2022-08-30T08:06:07;9.52;;;8.52;;
40675;SDS011;26359;48.750;9.314;2022-08-30T08:08:34;11.57;;;10.02;;
40675;SDS011;26359;48.750;9.314;2022-08-30T08:13:38;13.50;;;12.20;;
40675;SDS011;26359;48.750;9.314;2022-08-30T08:16:04;13.73;;;12.73;;
40675;SDS011;26359;48.750;9.314;2022-08-30T08:18:30;14.05;;;12.73;;
40675;SDS011;26359;48.750;9.314;2022-08-30T08:20:56;12.85;;;10.23;;
40675;SDS011;26359;48.750;9.314;2022-08-30T08:23:22;11.05;;;10.05;;
40675;SDS011;26359;48.750;9.314;2022-08-30T08:25:47;10.73;;;9.63;;
40675;SDS011;26359;48.750;9.314;2022-08-30T08:28:13;12.32;;;10.02;;
40675;SDS011;26359;48.750;9.314;2022-08-30T08:30:39;11.32;;;8.20;;
40675;SDS011;26359;48.750;9.314;2022-08-30T08:33:04;11.25;;;10.23;;
40675;SDS011;26359;48.750;9.314;2022-08-30T08:35:31;12.48;;;11.13;;
40675;SDS011;26359;48.750;9.314;2022-08-30T08:37:57;10.93;;;9.90;;
40675;SDS011;26359;48.750;9.314;2022-08-30T08:40:23;12.57;;;10.50;;
40675;SDS011;26359;48.750;9.314;2022-08-30T08:45:18;15.27;;;13.95;;
40675;SDS011;26359;48.750;9.314;2022-08-30T08:48:24;10.20;;;8.75;;
40675;SDS011;26359;48.750;9.314;2022-08-30T08:51:11;9.18;;;8.38;;
40675;SDS011;26359;48.750;9.314;2022-08-30T08:54:03;12.68;;;11.63;;
40675;SDS011;26359;48.750;9.314;2022-08-30T08:56:32;13.20;;;11.30;;
40675;SDS011;26359;48.750;9.314;2022-08-30T08:58:58;17.75;;;16.00;;
40675;SDS011;26359;48.750;9.314;2022-08-30T09:01:25;15.85;;;14.52;;
40675;SDS011;26359;48.750;9.314;2022-08-30T09:03:57;13.18;;;12.07;;
40675;SDS011;26359;48.750;9.314;2022-08-30T09:09:20;12.10;;;10.73;;
40675;SDS011;26359;48.750;9.314;2022-08-30T09:11:50;12.18;;;8.73;;
40675;SDS011;26359;48.750;9.314;2022-08-30T09:14:18;11.55;;;8.82;;
40675;SDS011;26359;48.750;9.314;2022-08-30T09:16:55;11.20;;;9.50;;
40675;SDS011;26359;48.750;9.314;2022-08-30T09:30:04;14.00;;;12.60;;
40675;SDS011;26359;48.750;9.314;2022-08-30T09:32:37;16.33;;;14.93;;
40675;SDS011;26359;48.750;9.314;2022-08-30T09:35:05;14.48;;;13.30;;
40675;SDS011;26359;48.750;9.314;2022-08-30T09:37:36;16.02;;;12.32;;
40675;SDS011;26359;48.750;9.314;2022-08-30T09:40:08;8.90;;;8.20;;
40675;SDS011;26359;48.750;9.314;2022-08-30T09:42:36;9.25;;;8.35;;
40675;SDS011;26359;48.750;9.314;2022-08-30T09:45:03;9.38;;;8.68;;
40675;SDS011;26359;48.750;9.314;2022-08-30T09:47:36;13.95;;;12.77;;
40675;SDS011;26359;48.750;9.314;2022-08-30T09:50:05;11.45;;;10.55;;
40675;SDS011;26359;48.750;9.314;2022-08-30T09:52:55;12.52;;;11.73;;
40675;SDS011;26359;48.750;9.314;2022-08-30T09:58:15;10.65;;;9.68;;
40675;SDS011;26359;48.750;9.314;2022-08-30T10:00:54;11.32;;;10.38;;
40675;SDS011;26359;48.750;9.314;2022-08-30T10:05:57;9.95;;;9.15;;
40675;SDS011;26359;48.750;9.314;2022-08-30T10:08:49;11.82;;;10.77;;
40675;SDS011;26359;48.750;9.314;2022-08-30T10:11:21;12.80;;;11.93;;
40675;SDS011;26359;48.750;9.314;2022-08-30T10:16:48;13.63;;;12.63;;
40675;SDS011;26359;48.750;9.314;2022-08-30T10:19:30;11.85;;;10.75;;
40675;SDS011;26359;48.750;9.314;2022-08-30T10:24:35;9.80;;;9.05;;
40675;SDS011;26359;48.750;9.314;2022-08-30T10:27:09;9.10;;;8.20;;
40675;SDS011;26359;48.750;9.314;2022-08-30T10:29:43;9.23;;;8.45;;
40675;SDS011;26359;48.750;9.314;2022-08-30T10:32:25;8.93;;;8.23;;
40675;SDS011;26359;48.750;9.314;2022-08-30T10:35:09;8.90;;;8.18;;
40675;SDS011;26359;48.750;9.314;2022-08-30T10:37:40;8.77;;;8.10;;
40675;SDS011;26359;48.750;9.314;2022-08-30T10:40:16;7.93;;;7.22;;
40675;SDS011;26359;48.750;9.314;2022-08-30T10:45:50;11.75;;;10.95;;
40675;SDS011;26359;48.750;9.314;2022-08-30T10:48:24;9.18;;;8.43;;
40675;SDS011;26359;48.750;9.314;2022-08-30T10:50:55;8.38;;;7.70;;
40675;SDS011;26359;48.750;9.314;2022-08-30T10:56:23;15.35;;;14.15;;
40675;SDS011;26359;48.750;9.314;2022-08-30T10:58:53;12.70;;;11.90;;
40675;SDS011;26359;48.750;9.314;2022-08-30T11:06:30;11.73;;;10.93;;
40675;SDS011;26359;48.750;9.314;2022-08-30T11:14:33;9.05;;;8.25;;
40675;SDS011;26359;48.750;9.314;2022-08-30T11:17:05;7.80;;;7.22;;
40675;SDS011;26359;48.750;9.314;2022-08-30T11:19:59;7.20;;;6.60;;
40675;SDS011;26359;48.750;9.314;2022-08-30T11:22:33;7.63;;;6.95;;
40675;SDS011;26359;48.750;9.314;2022-08-30T11:25:02;10.73;;;9.90;;
40675;SDS011;26359;48.750;9.314;2022-08-30T11:27:53;8.75;;;8.15;;
40675;SDS011;26359;48.750;9.314;2022-08-30T11:33:01;8.43;;;7.63;;
40675;SDS011;26359;48.750;9.314;2022-08-30T11:35:37;10.15;;;9.13;;
40675;SDS011;26359;48.750;9.314;2022-08-30T11:54:20;8.07;;;7.40;;
40675;SDS011;26359;48.750;9.314;2022-08-30T11:56:52;8.23;;;7.53;;
40675;SDS011;26359;48.750;9.314;2022-08-30T12:08:10;7.68;;;7.18;;
40675;SDS011;26359;48.750;9.314;2022-08-30T12:18:36;9.05;;;8.18;;
40675;SDS011;26359;48.750;9.314;2022-08-30T12:23:53;9.35;;;8.55;;
40675;SDS011;26359;48.750;9.314;2022-08-30T12:29:16;8.98;;;8.38;;
40675;SDS011;26359;48.750;9.314;2022-08-30T12:34:22;8.93;;;8.23;;
40675;SDS011;26359;48.750;9.314;2022-08-30T12:36:53;7.97;;;7.35;;
40675;SDS011;26359;48.750;9.314;2022-08-30T12:41:52;10.43;;;9.48;;
40675;SDS011;26359;48.750;9.314;2022-08-30T12:44:20;8.70;;;8.00;;
40675;SDS011;26359;48.750;9.314;2022-08-30T12:46:49;9.13;;;8.45;;
40675;SDS011;26359;48.750;9.314;2022-08-30T12:49:18;7.68;;;6.75;;
40675;SDS011;26359;48.750;9.314;2022-08-30T12:51:45;6.82;;;6.32;;
40675;SDS011;26359;48.750;9.314;2022-08-30T12:54:18;7.90;;;7.30;;
40675;SDS011;26359;48.750;9.314;2022-08-30T12:56:54;7.70;;;7.13;;
40675;SDS011;26359;48.750;9.314;2022-08-30T12:59:39;7.30;;;6.80;;
40675;SDS011;26359;48.750;9.314;2022-08-30T13:02:09;7.10;;;6.47;;
40675;SDS011;26359;48.750;9.314;2022-08-30T13:04:43;7.80;;;7.03;;
40675;SDS011;26359;48.750;9.314;2022-08-30T13:07:11;8.27;;;7.57;;
40675;SDS011;26359;48.750;9.314;2022-08-30T13:10:03;7.50;;;6.85;;
40675;SDS011;26359;48.750;9.314;2022-08-30T13:12:32;8.13;;;7.32;;
40675;SDS011;26359;48.750;9.314;2022-08-30T13:15:16;7.72;;;7.13;;
40675;SDS011;26359;48.750;9.314;2022-08-30T13:18:08;7.65;;;7.05;;
40675;SDS011;26359;48.750;9.314;2022-08-30T13:20:36;7.80;;;7.20;;
40675;SDS011;26359;48.750;9.314;2022-08-30T13:25:29;9.82;;;8.82;;
40675;SDS011;26359;48.750;9.314;2022-08-30T13:27:56;8.32;;;7.82;;
40675;SDS011;26359;48.750;9.314;2022-08-30T13:30:23;8.98;;;8.02;;
40675;SDS011;26359;48.750;9.314;2022-08-30T13:32:48;8.82;;;8.07;;
40675;SDS011;26359;48.750;9.314;2022-08-30T13:35:14;9.00;;;8.30;;
40675;SDS011;26359;48.750;9.314;2022-08-30T13:37:40;10.75;;;9.85;;
40675;SDS011;26359;48.750;9.314;2022-08-30T13:40:07;11.60;;;10.73;;
40675;SDS011;26359;48.750;9.314;2022-08-30T13:42:34;10.57;;;9.77;;
40675;SDS011;26359;48.750;9.314;2022-08-30T13:45:00;12.43;;;11.50;;
40675;SDS011;26359;48.750;9.314;2022-08-30T13:47:25;11.43;;;10.63;;
40675;SDS011;26359;48.750;9.314;2022-08-30T13:49:51;13.60;;;12.55;;
40675;SDS011;26359;48.750;9.314;2022-08-30T13:52:18;11.82;;;10.90;;
40675;SDS011;26359;48.750;9.314;2022-08-30T13:54:50;11.50;;;10.70;;
40675;SDS011;26359;48.750;9.314;2022-08-30T13:57:18;11.05;;;10.13;;
40675;SDS011;26359;48.750;9.314;2022-08-30T13:59:48;11.93;;;11.13;;
40675;SDS011;26359;48.750;9.314;2022-08-30T14:02:14;10.45;;;9.65;;
40675;SDS011;26359;48.750;9.314;2022-08-30T14:04:39;10.07;;;9.32;;
40675;SDS011;26359;48.750;9.314;2022-08-30T14:07:05;10.43;;;9.57;;
40675;SDS011;26359;48.750;9.314;2022-08-30T14:09:30;9.05;;;7.93;;
40675;SDS011;26359;48.750;9.314;2022-08-30T14:11:56;8.48;;;7.78;;
40675;SDS011;26359;48.750;9.314;2022-08-30T14:14:21;8.43;;;7.85;;
40675;SDS011;26359;48.750;9.314;2022-08-30T14:16:48;8.20;;;7.53;;
40675;SDS011;26359;48.750;9.314;2022-08-30T14:19:14;7.78;;;7.15;;
40675;SDS011;26359;48.750;9.314;2022-08-30T14:21:40;7.30;;;6.70;;
40675;SDS011;26359;48.750;9.314;2022-08-30T14:24:07;8.32;;;7.78;;
40675;SDS011;26359;48.750;9.314;2022-08-30T14:26:40;9.13;;;8.32;;
40675;SDS011;26359;48.750;9.314;2022-08-30T14:29:10;8.88;;;8.18;;
40675;SDS011;26359;48.750;9.314;2022-08-30T14:31:37;9.13;;;8.18;;
40675;SDS011;26359;48.750;9.314;2022-08-30T14:34:03;10.43;;;9.65;;
40675;SDS011;26359;48.750;9.314;2022-08-30T14:36:30;10.82;;;9.90;;
40675;SDS011;26359;48.750;9.314;2022-08-30T14:38:56;8.15;;;7.35;;
40675;SDS011;26359;48.750;9.314;2022-08-30T14:41:22;10.52;;;9.63;;
40675;SDS011;26359;48.750;9.314;2022-08-30T14:43:48;7.85;;;7.35;;
40675;SDS011;26359;48.750;9.314;2022-08-30T14:46:15;10.48;;;9.57;;
40675;SDS011;26359;48.750;9.314;2022-08-30T14:48:40;8.18;;;7.38;;
40675;SDS011;26359;48.750;9.314;2022-08-30T14:51:13;8.40;;;7.70;;
40675;SDS011;26359;48.750;9.314;2022-08-30T14:53:41;8.52;;;7.80;;
40675;SDS011;26359;48.750;9.314;2022-08-30T14:56:08;7.70;;;7.10;;
40675;SDS011;26359;48.750;9.314;2022-08-30T14:58:35;10.00;;;9.20;;
40675;SDS011;26359;48.750;9.314;2022-08-30T15:01:01;9.30;;;8.65;;
40675;SDS011;26359;48.750;9.314;2022-08-30T15:03:29;11.25;;;10.40;;
40675;SDS011;26359;48.750;9.314;2022-08-30T15:05:55;11.95;;;10.88;;
40675;SDS011;26359;48.750;9.314;2022-08-30T15:08:20;9.88;;;9.18;;
40675;SDS011;26359;48.750;9.314;2022-08-30T15:10:46;11.55;;;10.73;;
40675;SDS011;26359;48.750;9.314;2022-08-30T15:13:11;9.60;;;8.20;;
40675;SDS011;26359;48.750;9.314;2022-08-30T15:15:37;10.00;;;9.27;;
40675;SDS011;26359;48.750;9.314;2022-08-30T15:18:04;8.95;;;8.25;;
40675;SDS011;26359;48.750;9.314;2022-08-30T15:20:30;8.73;;;8.02;;
40675;SDS011;26359;48.750;9.314;2022-08-30T15:22:55;8.95;;;8.32;;
40675;SDS011;26359;48.750;9.314;2022-08-30T15:25:21;8.60;;;7.82;;
40675;SDS011;26359;48.750;9.314;2022-08-30T15:27:47;8.50;;;7.70;;
40675;SDS011;26359;48.750;9.314;2022-08-30T15:30:12;9.70;;;8.93;;
40675;SDS011;26359;48.750;9.314;2022-08-30T15:32:39;9.00;;;8.25;;
40675;SDS011;26359;48.750;9.314;2022-08-30T15:35:04;8.85;;;8.23;;
40675;SDS011;26359;48.750;9.314;2022-08-30T15:37:31;9.35;;;8.65;;
40675;SDS011;26359;48.750;9.314;2022-08-30T15:39:57;9.68;;;8.85;;
40675;SDS011;26359;48.750;9.314;2022-08-30T15:42:23;8.80;;;8.10;;
40675;SDS011;26359;48.750;9.314;2022-08-30T15:44:50;8.68;;;7.97;;
40675;SDS011;26359;48.750;9.314;2022-08-30T15:47:18;8.63;;;7.93;;
40675;SDS011;26359;48.750;9.314;2022-08-30T15:49:50;8.07;;;7.47;;
40675;SDS011;26359;48.750;9.314;2022-08-30T15:52:22;8.65;;;7.85;;
40675;SDS011;26359;48.750;9.314;2022-08-30T15:54:48;8.00;;;7.40;;
40675;SDS011;26359;48.750;9.314;2022-08-30T15:57:13;8.60;;;7.90;;
40675;SDS011;26359;48.750;9.314;2022-08-30T15:59:39;9.48;;;8.82;;
40675;SDS011;26359;48.750;9.314;2022-08-30T16:02:04;10.10;;;9.30;;
40675;SDS011;26359;48.750;9.314;2022-08-30T16:04:30;10.95;;;10.05;;
40675;SDS011;26359;48.750;9.314;2022-08-30T16:06:55;8.13;;;7.43;;
40675;SDS011;26359;48.750;9.314;2022-08-30T16:09:21;7.82;;;7.22;;
40675;SDS011;26359;48.750;9.314;2022-08-30T16:11:47;8.13;;;7.53;;
40675;SDS011;26359;48.750;9.314;2022-08-30T16:14:13;9.52;;;8.73;;
40675;SDS011;26359;48.750;9.314;2022-08-30T16:16:39;9.80;;;8.85;;
40675;SDS011;26359;48.750;9.314;2022-08-30T16:19:05;9.98;;;9.07;;